Language: 


Des rapports , des résumés tant et plus, au choix de chacun....


Données Historiques de Météogheer
Journalier Rapport pour Décembre 27, 2017 Unitée:  Impériale    Métrique   Les deux
Suivant Jour »
Journalier Hebdomadaire Mensuel Annuel Sur mesure
  Max: Min: Moyenne:
Température: 46 °F 32 °F 42.6 °F
Point de rosée: 44.6 °F 35.6 °F 40.6 °F
Humidité: 98% 0% 91%
Vent: 24.6mph 0mph 8.1mph
Rafales: 33.8mph - -
Vent- - WSW
Pression: 29.5 in 0 in -
Pluie: 0.34 in    
Historical Graphs
 
 
Données tabulaires pour Décembre 27, 2017
Heure Température Point de rosée Pression Vent Vent Rafales Humidité Pluie Taux (Horaire) Conditions
00:04 45 °F 42.8 °F 29.5 in WSW 12.1 mph 16.8 mph 91% 0 in
00:05 45 °F 42.8 °F 29.5 in WSW 12.1 mph 16.8 mph 91% 0 in
00:10 46 °F 41 °F 29.5 in SW 13 mph 15.4 mph 81% 0 in
00:15 46 °F 41 °F 29.5 in SW 13 mph 15.4 mph 81% 0 in
00:16 45 °F 42.8 °F 29.5 in WSW 12.1 mph 16.8 mph 91% 0 in
00:17 46 °F 41 °F 29.5 in SW 13 mph 15.4 mph 81% 0 in
00:21 46 °F 41 °F 29.5 in SW 13 mph 15.4 mph 81% 0 in
00:22 46 °F 41 °F 29.5 in SW 13 mph 15.4 mph 81% 0 in
00:27 46 °F 41 °F 29.5 in SW 13 mph 15.4 mph 81% 0 in
00:30 45 °F 42.8 °F 29.5 in WSW 12.1 mph 16.8 mph 91% 0 in
00:34 46 °F 41 °F 29.5 in SW 13 mph 15.4 mph 81% 0 in
00:39 45 °F 42.8 °F 29.5 in WSW 12.1 mph 16.8 mph 91% 0 in
00:40 46 °F 41 °F 29.5 in SW 13 mph 15.4 mph 81% 0 in
00:45 46 °F 41 °F 29.5 in SW 13 mph 15.4 mph 81% 0 in
00:46 46 °F 41 °F 29.5 in SW 13 mph 15.4 mph 81% 0 in
00:48 46 °F 41 °F 29.5 in SW 13 mph 15.4 mph 81% 0 in
00:53 45 °F 42.8 °F 29.5 in WSW 12.1 mph 16.8 mph 91% 0 in
00:58 46 °F 41 °F 29.5 in SW 13 mph 15.4 mph 81% 0 in
01:03 46 °F 41 °F 29.5 in SW 13 mph 15.4 mph 81% 0 in
01:04 45 °F 42.8 °F 29.5 in WSW 12.1 mph 16.8 mph 91% 0 in
01:05 45 °F 42.8 °F 29.5 in WSW 12.1 mph 16.8 mph 91% 0 in
01:10 46 °F 41 °F 29.5 in SW 13 mph 15.4 mph 81% 0 in
01:15 45 °F 42.8 °F 29.5 in WSW 12.1 mph 16.8 mph 91% 0 in
01:16 46 °F 41 °F 29.5 in SW 13 mph 15.4 mph 81% 0 in
01:21 45 °F 42.8 °F 29.5 in WSW 12.1 mph 16.8 mph 91% 0 in
01:26 46 °F 41 °F 29.5 in SW 13 mph 15.4 mph 81% 0 in
01:28 46 °F 41 °F 29.5 in SW 13 mph 15.4 mph 81% 0 in
01:31 45 °F 42.8 °F 29.5 in WSW 12.1 mph 16.8 mph 91% 0 in
01:33 45 °F 42.8 °F 29.5 in WSW 12.1 mph 16.8 mph 91% 0 in
01:34 46 °F 41 °F 29.5 in SW 13 mph 15.4 mph 81% 0 in
01:38 46 °F 41 °F 29.5 in SW 13 mph 15.4 mph 81% 0 in
01:40 46 °F 41 °F 29.5 in SW 13 mph 15.4 mph 81% 0 in
01:43 46 °F 41 °F 29.5 in SW 13 mph 15.4 mph 81% 0 in
01:47 46 °F 41 °F 29.5 in SW 13 mph 15.4 mph 81% 0 in
01:49 46 °F 41 °F 29.5 in SW 13 mph 15.4 mph 81% 0 in
01:54 45 °F 42.8 °F 29.5 in WSW 12.1 mph 16.8 mph 91% 0 in
01:55 46 °F 41 °F 29.5 in SW 13 mph 15.4 mph 81% 0 in
02:00 46 °F 41 °F 29.5 in SW 13 mph 15.4 mph 81% 0 in
02:05 46 °F 41 °F 29.5 in SW 13 mph 15.4 mph 81% 0 in
02:07 46 °F 41 °F 29.5 in SW 13 mph 15.4 mph 81% 0 in
02:11 46 °F 41 °F 29.5 in SW 13 mph 15.4 mph 81% 0 in
02:16 46 °F 41 °F 29.5 in SW 13 mph 15.4 mph 81% 0 in
02:21 46 °F 41 °F 29.5 in SW 13 mph 15.4 mph 81% 0 in
02:24 45 °F 42.8 °F 29.5 in WSW 12.1 mph 16.8 mph 91% 0 in
02:26 46 °F 41 °F 29.5 in SW 13 mph 15.4 mph 81% 0 in
02:31 45 °F 42.8 °F 29.5 in WSW 12.1 mph 16.8 mph 91% 0 in
02:34 46 °F 41 °F 29.5 in SW 13 mph 15.4 mph 81% 0 in
02:37 46 °F 41 °F 29.5 in SW 13 mph 15.4 mph 81% 0 in
02:39 45 °F 42.8 °F 29.5 in WSW 12.1 mph 16.8 mph 91% 0 in
02:42 45 °F 42.8 °F 29.5 in WSW 12.1 mph 16.8 mph 91% 0 in
02:47 45 °F 42.8 °F 29.5 in WSW 12.1 mph 16.8 mph 91% 0 in
02:49 45 °F 42.8 °F 29.5 in WSW 12.1 mph 16.8 mph 91% 0 in
02:50 46 °F 41 °F 29.5 in SW 13 mph 15.4 mph 81% 0 in
02:54 45 °F 42.8 °F 29.5 in WSW 12.1 mph 16.8 mph 91% 0 in
02:55 45 °F 42.8 °F 29.5 in WSW 12.1 mph 16.8 mph 91% 0 in
08:37 43.7 °F 44.6 °F 0 in WSW 5.8 mph 5.8 mph 98% 0 in
08:39 43.7 °F 44.6 °F 28.9 in SSW 4.9 mph 5.8 mph 98% 0 in
08:42 43.7 °F 44.6 °F 28.9 in SSW 4.9 mph 5.8 mph 98% 0 in
08:44 43.3 °F 42.8 °F 28.9 in Calm   5.8 mph 98% 0 in
08:49 43.7 °F 44.6 °F 28.9 in SSW 4.9 mph 5.8 mph 98% 0 in
08:54 43 °F 42.8 °F 28.9 in SSW 7.6 mph 7.6 mph 98% 0 in
08:59 43 °F 42.8 °F 28.9 in SSW 5.6 mph 7.6 mph 98% 0 in
09:02 43 °F 42.8 °F 28.9 in SSW 4.7 mph 7.6 mph 98% 0 in
09:08 32 °F 42.8 °F 28.9 in SSW 3.4 mph 5.6 mph 0% 0 in
09:12 42.8 °F 42.8 °F 28.9 in SSW 2.7 mph 4.9 mph 98% 0 in
09:17 42.8 °F 42.8 °F 28.9 in SW 3.8 mph 4.9 mph 98% 0 in
09:18 42.8 °F 42.8 °F 28.9 in SSW 3.6 mph 4.9 mph 98% 0 in
09:23 42.8 °F 42.8 °F 28.9 in SSW 3.8 mph 6 mph 98% 0 in
09:26 42.8 °F 42.8 °F 28.9 in Calm   6 mph 98% 0 in
09:31 42.8 °F 42.8 °F 28.9 in Calm   6 mph 98% 0 in
09:33 42.8 °F 42.8 °F 28.9 in Calm   6 mph 98% 0 in
09:38 42.8 °F 42.8 °F 28.9 in SSW 2.9 mph 5.6 mph 98% 0 in
09:39 42.8 °F 42.8 °F 28.9 in Calm   5.6 mph 98% 0 in
09:44 42.8 °F 42.8 °F 28.9 in South 4.9 mph 5.6 mph 98% 0 in
09:45 42.8 °F 42.8 °F 28.9 in Calm   5.6 mph 98% 0 in
09:50 43 °F 42.8 °F 28.9 in SSW 3.4 mph 4.9 mph 98% 0 in
09:52 43 °F 42.8 °F 28.9 in South 5.6 mph 5.6 mph 98% 0 in
09:57 43.3 °F 42.8 °F 29 in SSW 3.4 mph 7.2 mph 98% 0 in
10:01 43.7 °F 44.6 °F 29 in South 3.6 mph 7.2 mph 98% 0 in
10:03 43.9 °F 44.6 °F 29 in SSW 4.3 mph 7.2 mph 98% 0 in
10:06 44.1 °F 44.6 °F 29 in SSW 4.9 mph 8.1 mph 98% 0 in
10:08 44.1 °F 44.6 °F 29 in SSW 3.8 mph 8.1 mph 98% 0 in
10:13 44.1 °F 44.6 °F 29 in South 5.4 mph 8.1 mph 98% 0 in
10:18 44.1 °F 44.6 °F 29 in SSW 4 mph 8.1 mph 98% 0 in
10:23 44.1 °F 42.8 °F 29 in SSW 3.8 mph 8.1 mph 97% 0 in
10:25 44.1 °F 42.8 °F 29 in Calm   6.3 mph 97% 0 in
10:30 44.1 °F 42.8 °F 29 in SW 7.2 mph 7.2 mph 97% 0 in
10:35 44.1 °F 42.8 °F 29 in South 3.4 mph 8.1 mph 97% 0 in
10:36 44.2 °F 42.8 °F 29 in SSW 4 mph 8.1 mph 96% 0 in
10:41 44.4 °F 44.6 °F 29 in SW 5.4 mph 10.1 mph 96% 0 in
10:46 45.1 °F 44.6 °F 29 in SSW 6.3 mph 10.1 mph 96% 0 in
10:49 45.5 °F 44.6 °F 29 in SW 7.6 mph 9.6 mph 95% 0 in
10:52 45.5 °F 44.6 °F 29 in WSW 8.1 mph 9.6 mph 95% 0 in
10:55 45.5 °F 44.6 °F 29 in SSW 8.1 mph 9.8 mph 95% 0 in
11:00 45.3 °F 42.8 °F 29 in SW 8.1 mph 13.2 mph 93% 0 in
11:05 45.1 °F 42.8 °F 29 in South 5.6 mph 13.2 mph 91% 0 in
11:08 45.1 °F 42.8 °F 29 in WSW 5.8 mph 10.1 mph 91% 0 in
11:13 45.1 °F 42.8 °F 29 in SSW 6.5 mph 9.4 mph 91% 0 in
11:16 45.5 °F 42.8 °F 29 in SSW 6.5 mph 8.7 mph 91% 0 in
11:19 45.9 °F 42.8 °F 29 in SSW 7.4 mph 12.3 mph 90% 0 in
11:23 46 °F 42.8 °F 29 in SSW 6.3 mph 12.3 mph 90% 0 in
11:24 46 °F 42.8 °F 29 in SSW 6.3 mph 12.3 mph 90% 0 in
11:29 46 °F 42.8 °F 29 in SW 10.1 mph 12.1 mph 88% 0 in
11:31 45.9 °F 42.8 °F 29 in SSW 10.1 mph 12.1 mph 88% 0 in
11:32 45.9 °F 42.8 °F 29 in SW 10.7 mph 12.1 mph 87% 0 in
11:37 45.3 °F 41 °F 29 in SSW 8.7 mph 10.7 mph 86% 0 in
11:38 45.3 °F 41 °F 29 in WSW 7.4 mph 10.7 mph 86% 0 in
11:43 45.1 °F 41 °F 29 in SW 4.9 mph 12.1 mph 86% 0 in
11:48 45.5 °F 42.8 °F 29 in SSW 3.8 mph 12.1 mph 87% 0 in
11:49 45.5 °F 42.8 °F 29 in SSW 4 mph 12.1 mph 87% 0 in
11:54 45.7 °F 42.8 °F 29 in Calm   8.1 mph 87% 0 in
11:59 45.7 °F 42.8 °F 29 in SSW 2.9 mph 7.6 mph 87% 0 in
12:00 45.7 °F 42.8 °F 29 in SSW 4.3 mph 7.6 mph 87% 0 in
12:05 45.5 °F 42.8 °F 29 in SW 7.8 mph 8.1 mph 87% 0 in
12:07 45.5 °F 42.8 °F 29 in SSW 5.8 mph 8.5 mph 87% 0 in
12:08 45.3 °F 42.8 °F 29 in SSW 4.7 mph 8.5 mph 87% 0 in
12:13 45.3 °F 42.8 °F 29 in SSW 5.8 mph 8.5 mph 87% 0 in
12:14 45.1 °F 42.8 °F 29 in SSW 5.6 mph 8.5 mph 87% 0 in
12:19 45.1 °F 41 °F 29 in SW 7.6 mph 10.1 mph 86% 0 in
12:20 45.1 °F 41 °F 29 in South 5.4 mph 10.1 mph 86% 0 in
12:25 45 °F 41 °F 29 in SSW 6 mph 10.1 mph 86% 0 in
12:26 45 °F 41 °F 29 in SSW 6.5 mph 10.1 mph 86% 0 in
12:31 45 °F 42.8 °F 29 in South 5.4 mph 9.8 mph 87% 0 in
12:32 45 °F 42.8 °F 29 in SSW 5.6 mph 9.8 mph 87% 0 in
12:37 45.3 °F 42.8 °F 29 in South 1.1 mph 8.7 mph 87% 0 in
12:38 45.3 °F 42.8 °F 29 in South 6.5 mph 10.1 mph 88% 0 in
12:44 45.5 °F 42.8 °F 29 in South 7.6 mph 10.1 mph 88% 0 in
12:45 45.5 °F 42.8 °F 29 in SSW 4.9 mph 10.1 mph 88% 0 in
12:50 45.7 °F 42.8 °F 29 in South 5.8 mph 8.5 mph 88% 0 in
12:55 45.7 °F 42.8 °F 29 in SW 6.5 mph 9.8 mph 87% 0 in
12:56 45.7 °F 42.8 °F 29 in South 7.4 mph 9.8 mph 87% 0 in
12:57 45.9 °F 42.8 °F 29 in SSW 5.6 mph 9.8 mph 87% 0 in
13:02 45.9 °F 42.8 °F 29 in WSW 7.8 mph 9.8 mph 87% 0 in
13:05 45.9 °F 42.8 °F 29 in SW 7.4 mph 10.1 mph 87% 0 in
13:06 45.9 °F 42.8 °F 29 in SW 5.6 mph 10.1 mph 87% 0 in
13:11 45.9 °F 42.8 °F 28.9 in SSW 7.4 mph 10.1 mph 87% 0 in
13:16 45.5 °F 42.8 °F 28.9 in SSW 6 mph 9.2 mph 86% 0 in
13:21 45.3 °F 41 °F 28.9 in SSW 6.3 mph 9.2 mph 86% 0 in
13:22 45.3 °F 41 °F 28.9 in SSW 6.3 mph 9.2 mph 86% 0 in
13:26 45.1 °F 41 °F 28.9 in SW 2.9 mph 7.8 mph 86% 0 in
13:31 45 °F 41 °F 28.9 in SW 4.9 mph 10.5 mph 86% 0 in
13:37 44.8 °F 41 °F 28.9 in SW 5.6 mph 10.5 mph 86% 0 in
13:38 44.8 °F 41 °F 28.9 in SW 4.9 mph 10.5 mph 86% 0 in
13:43 44.6 °F 41 °F 28.9 in WSW 4 mph 7.6 mph 87% 0 in
13:44 44.6 °F 41 °F 28.9 in SW 5.6 mph 7.6 mph 87% 0 in
13:48 44.4 °F 41 °F 28.9 in SW 4 mph 7.8 mph 87% 0 in
13:53 44.2 °F 41 °F 28.9 in WSW 8.1 mph 8.1 mph 88% 0 in
13:58 44.1 °F 41 °F 29 in WSW 5.4 mph 8.1 mph 89% 0 in
14:00 44.1 °F 41 °F 29 in SW 4.3 mph 8.1 mph 89% 0 in
14:05 44.1 °F 41 °F 29 in Calm   6.5 mph 89% 0 in
14:06 44.1 °F 41 °F 29 in Calm   6.5 mph 90% 0 in
14:11 43.9 °F 41 °F 29 in SW 5.8 mph 7.2 mph 90% 0 in
14:14 43.9 °F 41 °F 29 in Calm   7.2 mph 90% 0 in
14:18 43.9 °F 42.8 °F 29 in SSW 0.9 mph 7.2 mph 91% 0 in
14:19 43.9 °F 42.8 °F 29 in SSW 3.8 mph 6.5 mph 91% 0 in
14:24 43.9 °F 42.8 °F 29 in SSW 4.3 mph 6.5 mph 92% 0 in
14:26 44.1 °F 42.8 °F 29 in WSW 5.6 mph 6 mph 92% 0 in
14:31 44.1 °F 42.8 °F 29 in SSW 3.8 mph 6.5 mph 92% 0 in
14:33 44.1 °F 42.8 °F 29 in WSW 5.6 mph 7.4 mph 92% 0 in
14:35 44.1 °F 42.8 °F 29 in SW 7.6 mph 7.6 mph 92% 0 in
14:40 44.1 °F 42.8 °F 29 in WSW 4.7 mph 7.6 mph 93% 0 in
14:41 44.1 °F 42.8 °F 29 in WSW 4.7 mph 7.6 mph 93% 0 in
14:42 44.1 °F 42.8 °F 29 in South 4.3 mph 7.6 mph 93% 0 in
14:47 43.9 °F 42.8 °F 29 in Calm   6.3 mph 93% 0 in
14:52 43.3 °F 41 °F 29 in SW 7.6 mph 15.4 mph 92% 0.01 in
14:57 42.4 °F 41 °F 29 in West 3.4 mph 15.4 mph 92% 0.01 in
14:58 42.4 °F 41 °F 29 in West 2.7 mph 14.5 mph 92% 0.01 in
15:00 42.3 °F 41 °F 29 in West 3.8 mph 13.2 mph 92% 0.01 in
15:05 42.1 °F 41 °F 29 in West 11 mph 11 mph 93% 0.01 in
15:08 41.7 °F 41 °F 29 in West 5.6 mph 11 mph 93% 0.01 in
15:13 41.7 °F 41 °F 29 in WSW 1.1 mph 11 mph 95% 0.01 in
15:15 41.7 °F 41 °F 29 in NW 5.8 mph 11.2 mph 95% 0.01 in
15:20 41.4 °F 41 °F 29 in West 10.1 mph 11.9 mph 95% 0.01 in
15:22 41.4 °F 41 °F 29 in WNW 4 mph 11.9 mph 95% 0.01 in
15:26 41.4 °F 41 °F 29 in NNW 5.4 mph 11.9 mph 95% 0.01 in
15:31 41.5 °F 41 °F 29 in West 7.4 mph 10.5 mph 96% 0.03 in
15:33 41.4 °F 41 °F 29 in NW 11 mph 11 mph 96% 0.03 in
15:38 41.4 °F 41 °F 29 in West 6 mph 11 mph 96% 0.03 in
15:43 41.4 °F 41 °F 29 in West 8.5 mph 10.5 mph 97% 0.03 in
15:44 41.4 °F 41 °F 29 in WSW 10.5 mph 10.5 mph 97% 0.03 in
15:46 41.4 °F 41 °F 29 in West 7.6 mph 10.5 mph 97% 0.03 in
15:51 41.4 °F 41 °F 29 in NW 4 mph 11 mph 97% 0.03 in
15:56 41.4 °F 41 °F 29 in NW 5.8 mph 12.3 mph 97% 0.01 in
15:57 41.2 °F 41 °F 29 in West 4 mph 12.3 mph 98% 0.01 in
16:02 41.2 °F 41 °F 29 in West 9.6 mph 12.3 mph 98% 0.01 in
16:07 41.2 °F 41 °F 29 in WNW 6.3 mph 12.3 mph 98% 0.01 in
16:08 41 °F 41 °F 29 in West 6 mph 12.3 mph 98% 0.01 in
16:13 41 °F 41 °F 29 in WSW 8.9 mph 14.3 mph 98% 0.01 in
16:17 41 °F 41 °F 29 in WSW 7.8 mph 14.3 mph 98% 0.01 in
16:22 41 °F 41 °F 29 in WSW 7.8 mph 14.3 mph 98% 0.01 in
16:23 41 °F 41 °F 29 in WSW 7.8 mph 14.3 mph 98% 0.01 in
16:29 41.2 °F 41 °F 29 in WSW 15.4 mph 15.4 mph 98% 0.01 in
16:32 41.2 °F 41 °F 29 in NW 5.4 mph 15.4 mph 98% 0 in
16:34 41.2 °F 41 °F 29 in WNW 2.5 mph 15.4 mph 98% 0 in
16:39 41.2 °F 41 °F 29 in WNW 6.9 mph 8.7 mph 98% 0 in
16:41 41.2 °F 41 °F 29 in NNW 11 mph 11 mph 98% 0 in
16:46 41.2 °F 41 °F 29 in NNW 10.3 mph 12.3 mph 98% 0 in
16:47 41.2 °F 41 °F 29 in NNW 7.6 mph 12.8 mph 98% 0 in
16:52 41.2 °F 41 °F 29 in NNW 12.8 mph 14.3 mph 98% 0 in
16:53 41.2 °F 41 °F 29 in NNW 13.2 mph 26.6 mph 98% 0 in
16:58 41.2 °F 41 °F 29 in North 8.1 mph 26.6 mph 98% 0 in
16:59 41.2 °F 41 °F 29 in NNW 12.1 mph 26.6 mph 98% 0 in
17:04 41.2 °F 41 °F 29 in NW 24.2 mph 24.2 mph 98% 0 in
17:05 41.2 °F 41 °F 29 in North 15.9 mph 24.2 mph 98% 0 in
17:10 41.2 °F 41 °F 29 in NE 6.5 mph 24.2 mph 98% 0 in
17:11 41.2 °F 41 °F 29.1 in NNW 24.6 mph 24.6 mph 98% 0.01 in
17:16 41.2 °F 41 °F 29.1 in NNW 12.5 mph 24.6 mph 98% 0.01 in
17:20 41.2 °F 41 °F 29.1 in NNW 8.1 mph 24.6 mph 98% 0.02 in
17:25 41.2 °F 41 °F 29.1 in NNW 8.9 mph 23 mph 98% 0.02 in
17:27 41.2 °F 41 °F 29.1 in North 16.3 mph 22.6 mph 98% 0.03 in
17:32 41.2 °F 41 °F 29.1 in North 8.7 mph 33.3 mph 98% 0.03 in
17:33 41.2 °F 41 °F 29.1 in WNW 17.2 mph 33.3 mph 98% 0.03 in
17:38 41.2 °F 41 °F 29.1 in NNW 9.6 mph 33.3 mph 98% 0.05 in
17:39 39.6 °F 39.2 °F 29.1 in North 19.9 mph 29.8 mph 97% 0.05 in
17:44 39.4 °F 39.2 °F 29.1 in NW 17 mph 25.3 mph 97% 0.06 in
17:47 39.4 °F 39.2 °F 29.1 in NNW 10.3 mph 25.3 mph 98% 0.06 in
17:49 39.6 °F 39.2 °F 29.1 in North 19 mph 25.3 mph 98% 0.06 in
17:54 39.6 °F 39.2 °F 29.1 in North 17.4 mph 30.4 mph 97% 0.07 in
17:55 39.6 °F 39.2 °F 29.1 in NW 10.7 mph 30.4 mph 97% 0.07 in
18:00 39.7 °F 39.2 °F 29.1 in North 8.1 mph 30.4 mph 97% 0.09 in
18:01 39.7 °F 39.2 °F 29.1 in North 9.2 mph 30.4 mph 97% 0.09 in
18:06 39.7 °F 39.2 °F 29.1 in NNE 14.3 mph 26.2 mph 98% 0.1 in
18:08 39.7 °F 39.2 °F 29.1 in NNW 17.7 mph 26.2 mph 98% 0.1 in
18:12 39.9 °F 39.2 °F 29.1 in WNW 7.8 mph 33.8 mph 98% 0.09 in
18:17 39.6 °F 39.2 °F 29.1 in North 20.1 mph 33.8 mph 97% 0.09 in
18:21 38.8 °F 37.4 °F 29.1 in NNE 17.9 mph 26.2 mph 94% 0.09 in
18:23 38.7 °F 37.4 °F 29.1 in NNW 19.9 mph 26.2 mph 94% 0.09 in
18:28 38.7 °F 37.4 °F 29.1 in North 19 mph 28.6 mph 94% 0.09 in
18:29 38.7 °F 37.4 °F 29.1 in North 7.8 mph 28.6 mph 94% 0.09 in
18:34 39 °F 37.4 °F 29.1 in NNW 8.5 mph 28.6 mph 95% 0.09 in
18:37 39.2 °F 37.4 °F 29.1 in NW 9.8 mph 25.7 mph 95% 0.07 in
18:42 39.2 °F 37.4 °F 29.2 in WNW 15.9 mph 23.5 mph 95% 0.06 in
18:47 38.8 °F 37.4 °F 29.2 in North 7.8 mph 17.7 mph 96% 0.06 in
18:49 38.8 °F 37.4 °F 29.2 in North 7.6 mph 15.9 mph 97% 0.07 in
18:54 38.8 °F 39.2 °F 29.2 in NNE 12.3 mph 14.8 mph 98% 0.06 in
18:59 38.7 °F 39.2 °F 29.2 in WNW 4 mph 14.8 mph 98% 0.07 in
19:05 38.5 °F 39.2 °F 29.2 in NNW 10.7 mph 15.4 mph 98% 0.07 in
19:07 38.5 °F 39.2 °F 29.2 in NNW 11 mph 17.4 mph 98% 0.07 in
19:13 38.5 °F 39.2 °F 29.2 in NW 12.3 mph 24.6 mph 98% 0.06 in
19:16 38.5 °F 39.2 °F 29.2 in North 5.6 mph 24.6 mph 98% 0.06 in
19:17 38.5 °F 39.2 °F 29.2 in North 12.8 mph 24.6 mph 98% 0.06 in
19:23 38.5 °F 39.2 °F 29.2 in North 6.7 mph 18.6 mph 98% 0.05 in
19:26 38.7 °F 39.2 °F 29.2 in North 8.7 mph 18.6 mph 98% 0.06 in
19:27 38.7 °F 39.2 °F 29.2 in North 7.6 mph 18.6 mph 98% 0.06 in
19:33 38.8 °F 39.2 °F 29.2 in NW 5.8 mph 15.4 mph 98% 0.07 in
19:34 39 °F 39.2 °F 29.2 in NNW 5.4 mph 15.4 mph 98% 0.07 in
19:39 39.2 °F 39.2 °F 29.2 in North 7.8 mph 12.3 mph 98% 0.09 in
19:41 39.2 °F 39.2 °F 29.2 in North 8.1 mph 12.3 mph 98% 0.1 in
19:46 39.6 °F 39.2 °F 29.2 in NNE 4.3 mph 11.9 mph 98% 0.1 in
19:47 39.6 °F 39.2 °F 29.2 in West 5.6 mph 11.9 mph 98% 0.1 in
19:52 39.9 °F 39.2 °F 29.2 in North 15.2 mph 19.2 mph 98% 0.09 in
19:54 39.9 °F 39.2 °F 29.2 in NNW 10.5 mph 21.5 mph 98% 0.09 in
19:59 40.1 °F 41 °F 29.2 in WNW 10.5 mph 21.5 mph 98% 0.06 in
20:00 40.1 °F 41 °F 29.2 in NNW 9.8 mph 21.5 mph 98% 0.05 in
20:05 39.9 °F 39.2 °F 29.2 in West 11 mph 19.5 mph 98% 0.06 in
20:08 39.9 °F 39.2 °F 29.2 in NW 12.5 mph 19.5 mph 97% 0.06 in
20:13 39.9 °F 39.2 °F 29.3 in NW 3.8 mph 15.2 mph 96% 0.06 in
20:16 39.9 °F 39.2 °F 29.3 in NNW 10.3 mph 15.2 mph 96% 0.06 in
20:23 39.9 °F 39.2 °F 29.3 in NNW 6 mph 15.2 mph 95% 0.05 in
20:26 39.9 °F 39.2 °F 29.3 in NW 12.3 mph 19.2 mph 95% 0.05 in
20:30 39.9 °F 39.2 °F 29.3 in North 14.5 mph 19.2 mph 95% 0.05 in
20:35 39.9 °F 37.4 °F 29.3 in NW 8.7 mph 19.2 mph 93% 0.02 in
20:38 39.9 °F 37.4 °F 29.3 in WNW 8.5 mph 19.2 mph 93% 0.02 in
20:43 39.9 °F 37.4 °F 29.3 in North 8.5 mph 19.2 mph 92% 0.01 in
20:46 39.9 °F 37.4 °F 29.3 in West 7.2 mph 19.2 mph 92% 0.01 in
20:50 39.9 °F 37.4 °F 29.3 in NNW 7.8 mph 15.4 mph 91% 0.01 in
20:55 39.9 °F 37.4 °F 29.3 in NNE 8.7 mph 16.1 mph 92% 0.01 in
20:57 39.9 °F 37.4 °F 29.3 in WNW 8.1 mph 16.1 mph 91% 0.01 in
20:59 39.9 °F 37.4 °F 29.3 in West 10.7 mph 16.1 mph 91% 0.01 in
21:02 39.9 °F 37.4 °F 29.3 in North 7.4 mph 15.9 mph 91% 0.01 in
21:06 39.9 °F 37.4 °F 29.3 in NNE 11 mph 13.6 mph 91% 0 in
21:08 39.9 °F 37.4 °F 29.3 in NW 14.3 mph 17.7 mph 91% 0 in
21:13 40.1 °F 37.4 °F 29.3 in West 6.5 mph 17.7 mph 90% 0 in
21:14 40.1 °F 37.4 °F 29.3 in NNW 4.7 mph 17.7 mph 90% 0 in
21:19 40.1 °F 37.4 °F 29.3 in NNW 9.6 mph 17.2 mph 90% 0 in
21:23 40.1 °F 37.4 °F 29.3 in North 7.6 mph 17.2 mph 90% 0 in
21:28 40.1 °F 37.4 °F 29.3 in WNW 16.1 mph 17.2 mph 89% 0 in
21:33 39.9 °F 37.4 °F 29.3 in North 7.8 mph 16.1 mph 88% 0 in
21:37 39.9 °F 37.4 °F 29.3 in NNW 10.3 mph 16.1 mph 88% 0 in
21:42 39.9 °F 37.4 °F 29.3 in WNW 10.5 mph 18.6 mph 88% 0 in
21:43 39.7 °F 37.4 °F 29.3 in North 6.3 mph 18.6 mph 88% 0 in
21:48 39.7 °F 37.4 °F 29.3 in WNW 7.8 mph 18.6 mph 88% 0 in
21:53 39.7 °F 37.4 °F 29.3 in North 8.7 mph 15.4 mph 88% 0 in
21:56 39.6 °F 37.4 °F 29.3 in NE 5.8 mph 11 mph 88% 0 in
21:57 39.6 °F 37.4 °F 29.3 in WNW 5.6 mph 11 mph 88% 0 in
22:02 39.7 °F 37.4 °F 29.3 in NNW 5.4 mph 13 mph 88% 0 in
22:03 39.7 °F 37.4 °F 29.3 in NE 8.5 mph 13 mph 88% 0 in
22:05 39.7 °F 37.4 °F 29.3 in NW 10.1 mph 13 mph 88% 0 in
22:10 39.7 °F 37.4 °F 29.3 in North 7.6 mph 13 mph 88% 0 in
22:12 39.7 °F 37.4 °F 29.3 in North 3.8 mph 10.7 mph 88% 0 in
22:14 39.7 °F 37.4 °F 29.3 in NW 4 mph 10.7 mph 88% 0 in
22:19 39.7 °F 37.4 °F 29.3 in NNW 2.7 mph 14.8 mph 87% 0 in
22:23 39.7 °F 37.4 °F 29.3 in NNE 5.4 mph 14.8 mph 87% 0 in
22:26 39.9 °F 37.4 °F 29.3 in SSW 13 mph 13 mph 87% 0 in
22:31 39.9 °F 37.4 °F 29.3 in NNE 5.8 mph 13 mph 87% 0 in
22:35 39.9 °F 37.4 °F 29.3 in WNW 6.3 mph 13 mph 87% 0 in
22:37 39.9 °F 37.4 °F 29.3 in WNW 7.2 mph 12.8 mph 87% 0 in
22:41 39.9 °F 37.4 °F 29.4 in NW 3.1 mph 12.8 mph 87% 0 in
22:43 39.9 °F 37.4 °F 29.4 in NNW 5.6 mph 12.8 mph 87% 0 in
22:49 39.9 °F 35.6 °F 29.4 in North 5.8 mph 10.3 mph 86% 0 in
22:51 39.9 °F 35.6 °F 29.4 in WNW 6.5 mph 11 mph 86% 0 in
22:55 39.9 °F 35.6 °F 29.4 in North 7.8 mph 14.5 mph 86% 0 in
22:57 39.9 °F 35.6 °F 29.4 in NNW 4.9 mph 14.5 mph 86% 0 in
23:02 39.9 °F 35.6 °F 29.4 in NW 7.2 mph 14.5 mph 85% 0 in
23:04 39.7 °F 35.6 °F 29.4 in WNW 3.8 mph 12.1 mph 85% 0 in
23:06 39.7 °F 35.6 °F 29.4 in West 2.5 mph 12.1 mph 85% 0 in
23:10 39.7 °F 35.6 °F 29.4 in NNE 7.6 mph 10.5 mph 85% 0 in
23:14 39.7 °F 35.6 °F 29.4 in WNW 4 mph 10.5 mph 85% 0 in
23:15 39.7 °F 35.6 °F 29.4 in WNW 6.3 mph 8.7 mph 85% 0 in
23:21 39.6 °F 35.6 °F 29.4 in NNW 9.6 mph 15.4 mph 85% 0 in
23:22 39.6 °F 35.6 °F 29.4 in WNW 7.8 mph 15.4 mph 85% 0 in
23:25 39.6 °F 35.6 °F 29.4 in West 6 mph 15.4 mph 84% 0 in
23:30 39.4 °F 35.6 °F 29.4 in NNE 9.4 mph 11 mph 84% 0 in
23:35 39.4 °F 35.6 °F 29.4 in NNW 5.8 mph 11.4 mph 84% 0 in
23:36 39.4 °F 35.6 °F 29.4 in NNW 4 mph 11.4 mph 84% 0 in
23:41 39.2 °F 35.6 °F 29.4 in West 3.1 mph 11.4 mph 84% 0 in
23:46 39.2 °F 35.6 °F 29.4 in NNW 1.1 mph 10.5 mph 85% 0 in
23:48 39.2 °F 35.6 °F 29.4 in West 3.4 mph 10.5 mph 85% 0 in
23:53 39.2 °F 35.6 °F 29.4 in WNW 2.9 mph 10.5 mph 85% 0 in
23:58 39.2 °F 35.6 °F 29.4 in WNW 7.6 mph 8.1 mph 85% 0 in
Données Historique de Météo Turbie

Mise a jour : 26/05/2018 06:00:13
Généré par Cumulus 1.9.4 (1099)